createdAt,value
2022-10-14T00:06:24.536Z,10.92
2022-10-14T00:17:23.996Z,10.72
2022-10-14T00:28:16.614Z,10.43
2022-10-14T00:39:15.219Z,10.14
2022-10-14T00:49:56.686Z,9.94
2022-10-14T01:00:51.003Z,9.74
2022-10-14T01:12:04.248Z,9.55
2022-10-14T01:22:55.705Z,9.35
2022-10-14T01:33:57.030Z,9.35
2022-10-14T01:44:55.499Z,9.25
2022-10-14T01:55:49.684Z,9.06
2022-10-14T02:06:44.475Z,8.96
2022-10-14T02:17:46.275Z,8.96
2022-10-14T02:28:47.919Z,8.86
2022-10-14T02:39:50.747Z,8.67
2022-10-14T02:50:51.211Z,8.47
2022-10-14T03:01:32.669Z,8.47
2022-10-14T03:12:13.849Z,8.37
2022-10-14T03:23:16.473Z,8.28
2022-10-14T03:34:08.234Z,8.08
2022-10-14T03:44:48.517Z,8.18
2022-10-14T03:55:51.065Z,7.79
2022-10-14T04:06:49.942Z,7.69
2022-10-14T04:17:50.060Z,7.79
2022-10-14T04:28:51.718Z,7.69
2022-10-14T04:39:55.333Z,7.49
2022-10-14T04:50:39.305Z,7.40
2022-10-14T05:01:46.759Z,7.40
2022-10-14T05:12:32.126Z,7.40
2022-10-14T05:23:39.045Z,7.49
2022-10-14T05:34:38.977Z,7.49
2022-10-14T05:45:39.848Z,7.69
2022-10-14T05:56:34.366Z,7.69
2022-10-14T06:07:32.125Z,7.89
2022-10-14T06:18:35.962Z,8.08
2022-10-14T06:29:39.884Z,8.47
2022-10-14T06:40:40.898Z,8.96
2022-10-14T06:51:44.229Z,9.45
2022-10-14T07:02:41.146Z,9.74
2022-10-14T07:13:43.740Z,10.23
2022-10-14T07:24:28.635Z,10.82
2022-10-14T07:35:30.918Z,11.31
2022-10-14T07:46:33.871Z,11.80
2022-10-14T07:57:29.302Z,12.38
2022-10-14T08:08:31.009Z,13.07
2022-10-14T08:19:32.256Z,13.56
2022-10-14T08:30:34.256Z,14.15
2022-10-14T08:41:36.064Z,14.54
2022-10-14T08:52:37.866Z,15.22
2022-10-14T09:03:18.331Z,15.71
2022-10-14T09:13:54.853Z,15.51
2022-10-14T09:24:35.961Z,15.90
2022-10-14T09:35:17.417Z,16.59
2022-10-14T09:46:18.425Z,17.18
2022-10-14T09:57:18.763Z,17.57
2022-10-14T10:08:19.869Z,18.25
2022-10-14T10:19:19.034Z,18.45
2022-10-14T10:30:18.051Z,18.35
2022-10-14T10:41:15.115Z,18.55
2022-10-14T10:51:49.771Z,22.55
2022-10-14T11:02:22.069Z,22.07
2022-10-14T11:13:16.988Z,18.06
2022-10-14T11:34:50.287Z,19.23
2022-10-14T11:45:26.731Z,17.86
2022-10-14T11:56:25.456Z,16.88
2022-10-14T12:07:25.152Z,16.79
2022-10-14T12:18:24.194Z,16.88
2022-10-14T12:29:26.047Z,23.83
2022-10-14T12:40:28.257Z,27.35
2022-10-14T12:51:29.921Z,28.13
2022-10-14T13:02:21.476Z,25.19
2022-10-14T13:13:17.532Z,26.56
2022-10-14T13:24:18.514Z,25.78
2022-10-14T13:34:54.393Z,25.59
2022-10-14T13:45:32.527Z,21.68
2022-10-14T13:56:28.506Z,19.43
2022-10-14T14:07:59.143Z,18.64
2022-10-14T14:18:30.433Z,19.23
2022-10-14T14:29:28.167Z,18.15
2022-10-14T14:40:24.518Z,17.76
2022-10-14T14:51:23.080Z,17.47
2022-10-14T15:02:01.440Z,17.47
2022-10-14T15:12:57.456Z,17.08
2022-10-14T15:23:56.436Z,16.69
2022-10-14T15:34:56.813Z,16.20
2022-10-14T15:45:55.035Z,15.61
2022-10-14T15:56:52.620Z,15.02
2022-10-14T16:07:44.143Z,14.34
2022-10-14T16:18:42.625Z,13.95
2022-10-14T16:29:38.630Z,13.46
2022-10-14T16:40:39.444Z,13.07
2022-10-14T16:51:39.258Z,12.68
2022-10-14T17:02:37.941Z,12.29
2022-10-14T17:13:35.055Z,12.09
2022-10-14T17:24:33.133Z,11.90
2022-10-14T17:35:33.159Z,11.60
2022-10-14T17:46:30.989Z,11.60
2022-10-14T17:57:28.011Z,11.60
2022-10-14T18:08:11.944Z,11.41
2022-10-14T18:18:54.557Z,11.50
2022-10-14T18:29:29.795Z,11.70
2022-10-14T18:40:11.216Z,11.89
2022-10-14T18:50:47.735Z,12.09
2022-10-14T19:12:05.283Z,11.90
2022-10-14T19:22:57.596Z,11.89
2022-10-14T19:33:33.806Z,11.80
2022-10-14T19:55:20.034Z,11.11
2022-10-14T20:06:20.771Z,11.02
2022-10-14T20:17:21.248Z,11.21
2022-10-14T20:28:22.434Z,11.21
2022-10-14T20:39:22.625Z,11.50
2022-10-14T20:50:23.836Z,11.50
2022-10-14T21:01:24.922Z,11.41
2022-10-14T21:12:22.909Z,11.21
2022-10-14T21:23:23.662Z,10.92
2022-10-14T21:34:23.062Z,10.72
2022-10-14T21:45:22.796Z,10.82
2022-10-14T21:56:19.597Z,10.62
2022-10-14T22:07:16.173Z,10.53
2022-10-14T22:18:13.823Z,10.62
2022-10-14T22:28:50.881Z,10.62
2022-10-14T22:39:49.276Z,10.62
2022-10-14T22:50:27.767Z,10.72
2022-10-14T23:01:25.461Z,10.72
2022-10-14T23:12:26.700Z,10.72
2022-10-14T23:23:28.431Z,10.62
2022-10-14T23:34:30.616Z,10.53
2022-10-14T23:45:32.830Z,10.33
2022-10-14T23:56:34.799Z,10.04
